createdAt,value
2018-02-14T00:00:04.248Z,9.30
2018-02-14T00:02:31.754Z,10.57
2018-02-14T00:05:00.069Z,15.90
2018-02-14T00:07:27.547Z,13.18
2018-02-14T00:09:55.038Z,12.73
2018-02-14T00:12:22.543Z,10.95
2018-02-14T00:14:50.268Z,13.73
2018-02-14T00:17:20.250Z,6.20
2018-02-14T00:19:47.961Z,8.63
2018-02-14T00:22:15.470Z,9.47
2018-02-14T00:24:42.954Z,16.13
2018-02-14T00:27:11.283Z,11.70
2018-02-14T00:29:38.818Z,12.63
2018-02-14T00:32:06.364Z,14.93
2018-02-14T00:34:34.707Z,13.80
2018-02-14T00:37:02.312Z,11.88
2018-02-14T00:39:29.831Z,17.40
2018-02-14T00:41:57.363Z,9.90
2018-02-14T00:44:25.651Z,9.60
2018-02-14T00:46:53.179Z,8.80
2018-02-14T00:49:20.694Z,13.45
2018-02-14T00:51:48.224Z,8.65
2018-02-14T00:54:15.742Z,11.73
2018-02-14T00:56:43.255Z,17.20
2018-02-14T00:59:10.806Z,17.92
2018-02-14T01:01:38.332Z,14.55
2018-02-14T01:04:05.876Z,11.15
2018-02-14T01:06:33.427Z,12.43
2018-02-14T01:09:00.965Z,10.93
2018-02-14T01:11:28.526Z,10.63
2018-02-14T01:13:56.842Z,9.52
2018-02-14T01:16:24.338Z,10.70
2018-02-14T01:18:52.085Z,12.70
2018-02-14T01:21:19.574Z,12.15
2018-02-14T01:23:47.865Z,11.90
2018-02-14T01:26:16.123Z,10.40
2018-02-14T01:28:44.378Z,12.15
2018-02-14T01:31:12.658Z,13.62
2018-02-14T01:33:40.190Z,10.10
2018-02-14T01:36:07.716Z,19.92
2018-02-14T01:38:35.283Z,11.27
2018-02-14T01:41:02.792Z,12.10
2018-02-14T01:43:30.317Z,17.42
2018-02-14T01:45:57.949Z,14.90
2018-02-14T01:48:25.480Z,11.18
2018-02-14T01:50:52.999Z,11.02
2018-02-14T01:53:20.509Z,9.25
2018-02-14T01:55:48.857Z,14.70
2018-02-14T01:58:16.420Z,14.52
2018-02-14T02:00:44.694Z,13.25
2018-02-14T02:03:12.216Z,15.07
2018-02-14T02:05:39.831Z,15.25
2018-02-14T02:08:07.373Z,14.27
2018-02-14T02:10:34.911Z,12.15
2018-02-14T02:13:02.440Z,17.00
2018-02-14T02:15:29.962Z,19.02
2018-02-14T02:17:57.519Z,12.10
2018-02-14T02:20:25.038Z,11.02
2018-02-14T02:22:52.545Z,16.30
2018-02-14T02:25:20.068Z,12.25
2018-02-14T02:27:48.367Z,15.35
2018-02-14T02:30:15.888Z,14.73
2018-02-14T02:32:43.641Z,13.62
2018-02-14T02:35:11.935Z,12.90
2018-02-14T02:37:39.479Z,11.93
2018-02-14T02:40:18.918Z,13.70
2018-02-14T02:42:46.428Z,10.93
2018-02-14T02:45:13.915Z,12.55
2018-02-14T02:47:41.418Z,16.87
2018-02-14T02:50:08.934Z,15.98
2018-02-14T02:52:36.412Z,19.73
2018-02-14T02:55:03.924Z,22.52
2018-02-14T02:57:31.449Z,14.98
2018-02-14T02:59:58.943Z,11.45
2018-02-14T03:02:27.220Z,10.15
2018-02-14T03:04:55.474Z,14.80
2018-02-14T03:07:22.987Z,12.60
2018-02-14T03:09:50.483Z,12.95
2018-02-14T03:12:18.805Z,11.68
2018-02-14T03:14:46.313Z,13.38
2018-02-14T03:17:13.799Z,18.37
2018-02-14T03:19:41.314Z,10.35
2018-02-14T03:22:08.798Z,13.00
2018-02-14T03:24:36.286Z,10.65
2018-02-14T03:27:04.572Z,15.98
2018-02-14T03:29:32.080Z,17.92
2018-02-14T03:31:59.582Z,16.40
2018-02-14T03:34:27.053Z,23.92
2018-02-14T03:36:54.539Z,15.25
2018-02-14T03:39:22.046Z,17.60
2018-02-14T03:41:50.305Z,16.17
2018-02-14T03:44:18.575Z,15.35
2018-02-14T03:46:46.059Z,16.10
2018-02-14T03:49:13.552Z,15.50
2018-02-14T03:51:41.046Z,17.25
2018-02-14T03:54:08.539Z,16.95
2018-02-14T03:56:36.068Z,19.10
2018-02-14T03:59:03.564Z,15.45
2018-02-14T04:01:31.061Z,16.00
2018-02-14T04:03:59.527Z,15.07
2018-02-14T04:06:27.002Z,13.70
2018-02-14T04:08:54.508Z,23.23
2018-02-14T04:11:22.014Z,19.10
2018-02-14T04:13:49.517Z,18.42
2018-02-14T04:16:17.039Z,18.15
2018-02-14T04:18:44.534Z,25.65
2018-02-14T04:21:12.051Z,21.40
2018-02-14T04:23:39.529Z,17.17
2018-02-14T04:26:07.803Z,16.10
2018-02-14T04:28:36.061Z,16.65
2018-02-14T04:31:03.563Z,18.67
2018-02-14T04:33:31.058Z,18.30
2018-02-14T04:35:58.566Z,21.70
2018-02-14T04:38:26.070Z,21.50
2018-02-14T04:40:54.693Z,15.98
2018-02-14T04:43:22.164Z,19.80
2018-02-14T04:45:49.664Z,17.73
2018-02-14T04:48:17.166Z,19.52
2018-02-14T04:50:44.654Z,20.92
2018-02-14T04:53:12.144Z,15.98
2018-02-14T04:55:39.626Z,18.58
2018-02-14T04:58:07.111Z,20.95
2018-02-14T05:00:34.627Z,20.55
2018-02-14T05:03:02.140Z,16.58
2018-02-14T05:05:29.629Z,22.48
2018-02-14T05:07:57.132Z,24.37
2018-02-14T05:10:25.404Z,22.08
2018-02-14T05:12:53.688Z,25.20
2018-02-14T05:15:21.181Z,15.98
2018-02-14T05:17:48.739Z,19.05
2018-02-14T05:20:16.219Z,18.65
2018-02-14T05:22:43.706Z,18.48
2018-02-14T05:25:11.484Z,21.77
2018-02-14T05:27:39.006Z,16.08
2018-02-14T05:30:06.509Z,22.10
2018-02-14T05:32:33.990Z,21.80
2018-02-14T05:35:01.535Z,26.77
2018-02-14T05:37:29.044Z,17.35
2018-02-14T05:39:56.899Z,19.48
2018-02-14T05:42:24.431Z,24.75
2018-02-14T05:44:52.756Z,21.83
2018-02-14T05:47:20.224Z,20.25
2018-02-14T05:49:48.495Z,18.45
2018-02-14T05:52:15.995Z,21.45
2018-02-14T05:54:43.520Z,21.55
2018-02-14T05:57:11.782Z,18.35
2018-02-14T05:59:39.375Z,18.58
2018-02-14T06:02:06.941Z,19.77
2018-02-14T06:04:34.451Z,26.40
2018-02-14T06:07:01.963Z,24.55
2018-02-14T06:09:29.482Z,18.62
2018-02-14T06:11:57.760Z,23.10
2018-02-14T06:14:25.260Z,23.42
2018-02-14T06:16:52.791Z,22.87
2018-02-14T06:19:20.304Z,21.48
2018-02-14T06:21:47.788Z,21.23
2018-02-14T06:24:15.281Z,19.30
2018-02-14T06:26:42.778Z,20.98
2018-02-14T06:29:10.284Z,23.12
2018-02-14T06:31:38.564Z,23.20
2018-02-14T06:34:06.077Z,24.73
2018-02-14T06:36:33.644Z,28.17
2018-02-14T06:39:01.172Z,25.40
2018-02-14T06:41:28.708Z,26.92
2018-02-14T06:43:56.220Z,25.37
2018-02-14T06:46:23.758Z,26.42
2018-02-14T06:48:51.246Z,26.02
2018-02-14T06:51:19.062Z,24.42
2018-02-14T06:53:46.555Z,19.92
2018-02-14T06:56:14.052Z,23.62
2018-02-14T06:58:41.590Z,24.25
2018-02-14T07:01:09.128Z,25.75
2018-02-14T07:03:36.689Z,28.05
2018-02-14T07:06:04.157Z,24.08
2018-02-14T07:08:31.740Z,29.23
2018-02-14T07:11:00.030Z,22.90
2018-02-14T07:13:27.563Z,22.55
2018-02-14T07:15:55.072Z,22.17
2018-02-14T07:18:22.582Z,24.45
2018-02-14T07:20:50.888Z,27.80
2018-02-14T07:23:24.100Z,25.55
2018-02-14T07:25:51.603Z,29.92
2018-02-14T07:28:19.147Z,24.80
2018-02-14T07:30:46.657Z,24.95
2018-02-14T07:33:14.195Z,23.52
2018-02-14T07:35:41.678Z,26.17
2018-02-14T07:38:09.200Z,23.10
2018-02-14T07:40:36.728Z,27.80
2018-02-14T07:43:04.260Z,30.92
2018-02-14T07:45:31.888Z,21.12
2018-02-14T07:47:59.391Z,22.70
2018-02-14T07:50:26.907Z,28.77
2018-02-14T07:52:54.391Z,28.35
2018-02-14T07:55:21.890Z,27.65
2018-02-14T07:57:49.400Z,29.10
2018-02-14T08:00:17.728Z,28.42
2018-02-14T08:02:45.250Z,26.52
2018-02-14T08:05:12.756Z,23.73
2018-02-14T08:07:41.050Z,20.85
2018-02-14T08:10:08.528Z,26.23
2018-02-14T08:12:36.059Z,23.52
2018-02-14T08:15:03.559Z,24.92
2018-02-14T08:17:31.063Z,28.08
2018-02-14T08:19:59.339Z,23.23
2018-02-14T08:22:27.616Z,29.33
2018-02-14T08:24:55.862Z,22.25
2018-02-14T08:27:23.413Z,21.70
2018-02-14T08:29:51.320Z,24.35
2018-02-14T08:32:19.568Z,29.05
2018-02-14T08:34:47.068Z,19.63
2018-02-14T08:37:14.596Z,25.60
2018-02-14T08:39:42.092Z,28.07
2018-02-14T08:42:09.621Z,24.67
2018-02-14T08:44:37.877Z,31.57
2018-02-14T08:47:05.344Z,28.70
2018-02-14T08:49:32.877Z,24.37
2018-02-14T08:52:00.427Z,30.30
2018-02-14T08:54:27.948Z,27.13
2018-02-14T08:56:56.468Z,26.70
2018-02-14T08:59:23.970Z,18.90
2018-02-14T09:01:52.247Z,18.40
2018-02-14T09:04:19.718Z,19.50
2018-02-14T09:06:47.217Z,21.83
2018-02-14T09:09:14.727Z,23.87
2018-02-14T09:11:42.999Z,22.60
2018-02-14T09:14:11.253Z,29.97
2018-02-14T09:16:43.550Z,26.20
2018-02-14T09:19:11.040Z,20.73
2018-02-14T09:21:38.556Z,20.73
2018-02-14T09:24:06.806Z,23.80
2018-02-14T09:26:34.294Z,27.00
2018-02-14T09:29:02.559Z,21.80
2018-02-14T09:31:30.849Z,22.97
2018-02-14T09:33:59.104Z,21.67
2018-02-14T09:36:26.575Z,18.47
2018-02-14T09:38:54.074Z,18.90
2018-02-14T09:41:21.568Z,20.63
2018-02-14T09:43:49.068Z,27.10
2018-02-14T09:46:16.545Z,20.83
2018-02-14T09:48:44.080Z,20.87
2018-02-14T09:51:11.558Z,16.33
2018-02-14T09:53:39.051Z,21.23
2018-02-14T09:56:06.535Z,18.20
2018-02-14T09:58:34.035Z,17.93
2018-02-14T10:01:01.528Z,15.67
2018-02-14T10:03:29.022Z,13.10
2018-02-14T10:05:56.506Z,20.97
2018-02-14T10:08:25.117Z,19.27
2018-02-14T10:10:52.747Z,15.80
2018-02-14T10:13:22.013Z,22.93
2018-02-14T10:15:49.711Z,15.07
2018-02-14T10:18:17.230Z,17.87
2018-02-14T10:20:44.810Z,14.80
2018-02-14T10:23:13.725Z,17.20
2018-02-14T10:25:41.396Z,17.23
2018-02-14T10:28:09.747Z,17.83
2018-02-14T10:30:38.544Z,22.60
2018-02-14T10:33:06.177Z,14.70
2018-02-14T10:35:34.592Z,15.10
2018-02-14T10:38:02.182Z,15.80
2018-02-14T10:40:30.472Z,14.70
2018-02-14T10:42:58.033Z,16.33
2018-02-14T10:45:25.572Z,13.00
2018-02-14T10:47:53.074Z,16.60
2018-02-14T10:50:20.580Z,11.70
2018-02-14T10:52:48.115Z,13.63
2018-02-14T10:55:15.692Z,15.93
2018-02-14T10:57:43.259Z,12.47
2018-02-14T11:00:10.739Z,12.97
2018-02-14T11:02:43.980Z,8.70
2018-02-14T11:05:17.150Z,10.77
2018-02-14T11:07:44.694Z,10.20
2018-02-14T11:10:12.957Z,6.33
2018-02-14T11:12:40.458Z,14.87
2018-02-14T11:15:07.969Z,8.87
2018-02-14T11:17:35.472Z,13.00
2018-02-14T11:20:02.984Z,10.87
2018-02-14T11:22:30.563Z,12.67
2018-02-14T11:24:58.073Z,11.10
2018-02-14T11:27:25.564Z,11.70
2018-02-14T11:29:53.070Z,8.60
2018-02-14T11:32:20.609Z,9.83
2018-02-14T11:34:48.105Z,8.80
2018-02-14T11:37:15.614Z,5.13
2018-02-14T11:39:43.872Z,9.90
2018-02-14T11:42:11.330Z,9.40
2018-02-14T11:44:38.846Z,9.20
2018-02-14T11:47:06.340Z,8.43
2018-02-14T11:49:34.136Z,10.40
2018-02-14T11:52:01.624Z,12.00
2018-02-14T11:54:29.137Z,10.30
2018-02-14T11:56:56.633Z,9.80
2018-02-14T11:59:24.123Z,11.80
2018-02-14T12:01:51.629Z,9.50
2018-02-14T12:04:19.104Z,12.27
2018-02-14T12:06:46.607Z,14.50
2018-02-14T12:09:14.104Z,12.73
2018-02-14T12:11:41.628Z,13.97
2018-02-14T12:14:09.128Z,12.80
2018-02-14T12:16:36.605Z,11.90
2018-02-14T12:19:04.125Z,18.13
2018-02-14T12:21:31.627Z,10.70
2018-02-14T12:23:59.124Z,12.03
2018-02-14T12:26:27.376Z,13.80
2018-02-14T12:28:54.859Z,16.93
2018-02-14T12:31:23.131Z,15.83
2018-02-14T12:33:51.379Z,13.90
2018-02-14T12:36:18.870Z,31.73
2018-02-14T12:38:47.141Z,16.80
2018-02-14T12:41:16.193Z,14.67
2018-02-14T12:43:43.670Z,14.83
2018-02-14T12:46:11.138Z,13.57
2018-02-14T12:48:38.622Z,20.77
2018-02-14T12:51:06.397Z,14.07
2018-02-14T12:53:34.639Z,16.10
2018-02-14T12:56:02.104Z,17.17
2018-02-14T12:58:30.362Z,15.23
2018-02-14T13:00:57.858Z,15.23
2018-02-14T13:03:25.355Z,15.73
2018-02-14T13:05:52.851Z,13.43
2018-02-14T13:08:21.100Z,14.33
2018-02-14T13:10:48.622Z,15.27
2018-02-14T13:13:16.176Z,17.63
2018-02-14T13:15:43.676Z,16.77
2018-02-14T13:18:11.170Z,15.23
2018-02-14T13:20:39.396Z,16.97
2018-02-14T13:23:06.912Z,15.13
2018-02-14T13:25:35.157Z,11.53
2018-02-14T13:28:03.438Z,13.57
2018-02-14T13:30:31.737Z,16.47
2018-02-14T13:32:59.237Z,13.07
2018-02-14T13:35:26.762Z,19.40
2018-02-14T13:37:54.288Z,12.57
2018-02-14T13:40:22.575Z,12.30
2018-02-14T13:42:50.093Z,14.17
2018-02-14T13:45:17.565Z,20.33
2018-02-14T13:47:45.071Z,20.83
2018-02-14T13:50:12.581Z,19.17
2018-02-14T13:52:44.032Z,15.83
2018-02-14T13:55:12.374Z,15.70
2018-02-14T13:57:39.963Z,15.23
2018-02-14T14:00:08.317Z,11.63
2018-02-14T14:02:35.853Z,15.20
2018-02-14T14:05:03.382Z,15.00
2018-02-14T14:07:30.964Z,11.23
2018-02-14T14:09:59.280Z,15.07
2018-02-14T14:12:26.926Z,14.53
2018-02-14T14:14:54.427Z,14.97
2018-02-14T14:17:21.939Z,14.10
2018-02-14T14:19:49.435Z,12.70
2018-02-14T14:22:16.996Z,13.37
2018-02-14T14:24:44.468Z,19.50
2018-02-14T14:27:11.957Z,12.50
2018-02-14T14:29:39.446Z,15.00
2018-02-14T14:32:06.926Z,13.37
2018-02-14T14:34:34.428Z,13.20
2018-02-14T14:37:01.957Z,15.33
2018-02-14T14:39:29.482Z,15.17
2018-02-14T14:41:57.056Z,15.37
2018-02-14T14:44:24.587Z,14.93
2018-02-14T14:46:52.178Z,19.83
2018-02-14T14:49:19.712Z,13.73
2018-02-14T14:51:47.909Z,11.67
2018-02-14T14:54:15.476Z,15.60
2018-02-14T14:56:43.081Z,13.50
2018-02-14T14:59:10.642Z,14.47
2018-02-14T15:01:38.148Z,12.77
2018-02-14T15:04:05.639Z,16.87
2018-02-14T15:06:33.139Z,13.27
2018-02-14T15:09:00.645Z,17.77
2018-02-14T15:11:28.202Z,13.23
2018-02-14T15:13:55.766Z,16.83
2018-02-14T15:16:23.227Z,13.90
2018-02-14T15:18:51.508Z,16.60
2018-02-14T15:21:19.894Z,16.90
2018-02-14T15:23:47.404Z,20.57
2018-02-14T15:26:14.903Z,18.07
2018-02-14T15:28:43.176Z,14.10
2018-02-14T15:31:10.722Z,9.67
2018-02-14T15:33:38.190Z,14.73
2018-02-14T15:36:05.705Z,15.60
2018-02-14T15:38:33.183Z,14.00
2018-02-14T15:41:00.689Z,21.87
2018-02-14T15:43:28.196Z,18.13
2018-02-14T15:45:55.676Z,17.90
2018-02-14T15:48:23.172Z,20.77
2018-02-14T15:50:50.669Z,14.73
2018-02-14T15:53:18.169Z,20.97
2018-02-14T15:55:45.665Z,15.03
2018-02-14T15:58:13.178Z,14.70
2018-02-14T16:00:40.729Z,16.90
2018-02-14T16:03:08.229Z,19.53
2018-02-14T16:05:35.764Z,11.90
2018-02-14T16:08:03.738Z,12.57
2018-02-14T16:10:31.237Z,12.93
2018-02-14T16:12:58.731Z,12.47
2018-02-14T16:15:26.259Z,11.30
2018-02-14T16:17:54.780Z,12.47
2018-02-14T16:20:22.450Z,12.47
2018-02-14T16:22:50.153Z,15.57
2018-02-14T16:25:17.828Z,15.43
2018-02-14T16:27:46.395Z,15.60
2018-02-14T16:30:13.949Z,45.63
2018-02-14T16:32:42.514Z,19.50
2018-02-14T16:35:10.059Z,16.20
2018-02-14T16:37:37.897Z,21.20
2018-02-14T16:40:06.201Z,16.73
2018-02-14T16:42:33.714Z,16.10
2018-02-14T16:45:01.223Z,12.03
2018-02-14T16:47:28.736Z,21.10
2018-02-14T16:49:56.216Z,15.00
2018-02-14T16:52:24.545Z,23.90
2018-02-14T16:54:52.063Z,16.07
2018-02-14T16:57:19.631Z,20.47
2018-02-14T16:59:47.076Z,14.93
2018-02-14T17:02:14.602Z,19.67
2018-02-14T17:04:42.140Z,20.27
2018-02-14T17:07:10.130Z,11.63
2018-02-14T17:09:37.591Z,20.80
2018-02-14T17:12:05.893Z,18.87
2018-02-14T17:14:33.400Z,14.87
2018-02-14T17:17:00.912Z,21.73
2018-02-14T17:19:28.390Z,15.73
2018-02-14T17:21:56.446Z,15.90
2018-02-14T17:24:23.946Z,20.07
2018-02-14T17:26:51.478Z,17.67
2018-02-14T17:29:19.733Z,17.73
2018-02-14T17:31:47.236Z,17.13
2018-02-14T17:34:14.720Z,16.17
2018-02-14T17:36:42.254Z,20.93
2018-02-14T17:39:09.780Z,20.90
2018-02-14T17:41:37.264Z,18.07
2018-02-14T17:44:04.790Z,22.80
2018-02-14T17:46:32.365Z,16.60
2018-02-14T17:48:59.898Z,17.93
2018-02-14T17:51:27.397Z,20.90
2018-02-14T17:53:54.893Z,16.83
2018-02-14T17:56:23.181Z,16.93
2018-02-14T17:58:50.711Z,19.03
2018-02-14T18:01:18.248Z,18.97
2018-02-14T18:03:45.766Z,20.40
2018-02-14T18:06:13.372Z,23.37
2018-02-14T18:08:40.896Z,18.27
2018-02-14T18:11:08.461Z,20.10
2018-02-14T18:13:36.102Z,17.97
2018-02-14T18:16:04.031Z,22.50
2018-02-14T18:18:31.630Z,21.17
2018-02-14T18:20:59.270Z,18.43
2018-02-14T18:23:26.853Z,18.03
2018-02-14T18:25:54.481Z,24.70
2018-02-14T18:28:22.058Z,24.10
2018-02-14T18:30:49.634Z,28.80
2018-02-14T18:33:17.140Z,20.40
2018-02-14T18:35:44.758Z,23.30
2018-02-14T18:38:13.106Z,21.23
2018-02-14T18:40:40.646Z,22.80
2018-02-14T18:43:09.021Z,23.03
2018-02-14T18:45:36.570Z,21.93
2018-02-14T18:48:04.148Z,25.10
2018-02-14T18:50:31.693Z,21.10
2018-02-14T18:52:59.276Z,23.33
2018-02-14T18:55:27.566Z,24.13
2018-02-14T18:57:55.145Z,21.10
2018-02-14T19:00:22.709Z,26.50
2018-02-14T19:02:50.322Z,23.13
2018-02-14T19:05:18.660Z,24.47
2018-02-14T19:07:46.195Z,20.07
2018-02-14T19:10:13.685Z,22.60
2018-02-14T19:12:41.262Z,25.00
2018-02-14T19:15:08.740Z,18.00
2018-02-14T19:17:37.013Z,19.13
2018-02-14T19:20:04.500Z,19.00
2018-02-14T19:22:32.010Z,24.33
2018-02-14T19:24:59.588Z,21.77
2018-02-14T19:27:27.096Z,22.70
2018-02-14T19:29:54.656Z,19.23
2018-02-14T19:32:22.169Z,23.50
2018-02-14T19:34:49.733Z,21.00
2018-02-14T19:37:18.013Z,16.40
2018-02-14T19:39:46.290Z,16.37
2018-02-14T19:42:14.618Z,23.23
2018-02-14T19:44:42.119Z,17.33
2018-02-14T19:47:10.393Z,18.40
2018-02-14T19:49:38.726Z,19.33
2018-02-14T19:52:06.222Z,22.90
2018-02-14T19:54:33.747Z,14.70
2018-02-14T19:57:02.195Z,22.80
2018-02-14T19:59:29.784Z,20.60
2018-02-14T20:01:57.305Z,26.97
2018-02-14T20:04:24.863Z,23.60
2018-02-14T20:06:53.180Z,23.40
2018-02-14T20:09:20.688Z,27.17
2018-02-14T20:11:48.966Z,22.80
2018-02-14T20:14:16.487Z,25.90
2018-02-14T20:16:43.997Z,21.53
2018-02-14T20:19:12.298Z,14.00
2018-02-14T20:21:39.803Z,14.50
2018-02-14T20:24:07.323Z,17.67
2018-02-14T20:26:34.854Z,23.87
2018-02-14T20:29:02.351Z,15.70
2018-02-14T20:31:29.889Z,16.80
2018-02-14T20:33:57.427Z,20.57
2018-02-14T20:36:24.924Z,21.87
2018-02-14T20:38:52.433Z,23.17
2018-02-14T20:41:19.971Z,21.40
2018-02-14T20:43:47.538Z,17.13
2018-02-14T20:46:15.111Z,13.87
2018-02-14T20:48:42.682Z,19.67
2018-02-14T20:51:10.264Z,17.40
2018-02-14T20:53:37.777Z,19.83
2018-02-14T20:56:05.250Z,19.87
2018-02-14T20:58:32.860Z,23.17
2018-02-14T21:01:01.196Z,16.13
2018-02-14T21:03:29.544Z,18.07
2018-02-14T21:05:57.830Z,18.70
2018-02-14T21:08:25.375Z,17.77
2018-02-14T21:10:53.658Z,21.97
2018-02-14T21:13:21.933Z,17.60
2018-02-14T21:15:49.464Z,15.93
2018-02-14T21:18:16.977Z,20.40
2018-02-14T21:20:44.503Z,26.30
2018-02-14T21:23:12.130Z,14.40
2018-02-14T21:25:39.639Z,10.33
2018-02-14T21:28:07.213Z,16.00
2018-02-14T21:30:34.716Z,19.17
2018-02-14T21:33:02.232Z,17.83
2018-02-14T21:35:29.760Z,12.50
2018-02-14T21:37:58.035Z,14.73
2018-02-14T21:40:26.341Z,13.73
2018-02-14T21:42:53.876Z,19.90
2018-02-14T21:45:22.207Z,15.67
2018-02-14T21:47:49.724Z,33.93
2018-02-14T21:50:17.278Z,16.60
2018-02-14T21:52:44.780Z,19.50
2018-02-14T21:55:12.280Z,13.37
2018-02-14T21:57:40.557Z,17.90
2018-02-14T22:00:08.076Z,24.83
2018-02-14T22:02:35.852Z,23.63
2018-02-14T22:05:04.449Z,21.03
2018-02-14T22:07:32.003Z,20.77
2018-02-14T22:10:00.325Z,19.70
2018-02-14T22:12:27.900Z,14.40
2018-02-14T22:14:55.472Z,13.83
2018-02-14T22:17:23.036Z,10.97
2018-02-14T22:19:50.590Z,16.20
2018-02-14T22:22:18.181Z,17.10
2018-02-14T22:24:45.791Z,21.57
2018-02-14T22:27:14.079Z,15.50
2018-02-14T22:29:41.639Z,17.90
2018-02-14T22:32:09.273Z,15.90
2018-02-14T22:34:36.926Z,19.23
2018-02-14T22:37:04.484Z,22.20
2018-02-14T22:39:32.054Z,21.63
2018-02-14T22:41:59.713Z,14.17
2018-02-14T22:44:27.287Z,20.53
2018-02-14T22:46:54.889Z,22.70
2018-02-14T22:49:22.478Z,22.17
2018-02-14T22:51:49.991Z,22.30
2018-02-14T22:54:17.546Z,18.00
2018-02-14T22:56:45.167Z,17.80
2018-02-14T22:59:12.663Z,16.37
2018-02-14T23:01:40.217Z,20.53
2018-02-14T23:04:08.015Z,18.57
2018-02-14T23:06:35.566Z,17.53
2018-02-14T23:09:03.092Z,15.60
2018-02-14T23:11:30.914Z,14.67
2018-02-14T23:13:58.779Z,16.47
2018-02-14T23:16:26.272Z,16.53
2018-02-14T23:18:53.828Z,13.43
2018-02-14T23:21:21.761Z,21.20
2018-02-14T23:23:49.639Z,20.43
2018-02-14T23:26:17.459Z,16.43
2018-02-14T23:28:44.984Z,18.57
2018-02-14T23:31:12.532Z,14.83
2018-02-14T23:33:40.023Z,18.23
2018-02-14T23:36:07.522Z,22.30
2018-02-14T23:38:35.835Z,12.17
2018-02-14T23:41:03.333Z,10.93
2018-02-14T23:43:30.898Z,19.40
2018-02-14T23:45:58.404Z,14.93
2018-02-14T23:48:25.939Z,21.77
2018-02-14T23:50:54.239Z,19.27
2018-02-14T23:53:21.723Z,15.50
2018-02-14T23:55:49.240Z,14.80
2018-02-14T23:58:16.716Z,19.47
